createdAt,value
2023-08-14T00:00:12.827Z,3.15
2023-08-14T00:02:43.433Z,3.70
2023-08-14T00:05:11.147Z,3.03
2023-08-14T00:07:38.631Z,4.35
2023-08-14T00:10:06.428Z,4.50
2023-08-14T00:12:33.820Z,2.65
2023-08-14T00:15:01.220Z,2.78
2023-08-14T00:17:28.884Z,3.75
2023-08-14T00:19:56.380Z,5.07
2023-08-14T00:22:23.678Z,3.47
2023-08-14T00:24:51.245Z,3.97
2023-08-14T00:27:18.683Z,2.85
2023-08-14T00:29:46.740Z,2.70
2023-08-14T00:32:14.207Z,3.22
2023-08-14T00:34:41.596Z,3.22
2023-08-14T00:37:09.108Z,3.95
2023-08-14T00:39:36.716Z,4.88
2023-08-14T00:42:04.425Z,3.58
2023-08-14T00:44:31.890Z,3.95
2023-08-14T00:46:59.748Z,4.28
2023-08-14T00:49:27.377Z,3.85
2023-08-14T00:51:54.867Z,3.40
2023-08-14T00:54:22.755Z,3.33
2023-08-14T00:56:50.352Z,3.63
2023-08-14T00:59:17.994Z,2.80
2023-08-14T01:01:45.816Z,3.13
2023-08-14T01:04:13.368Z,3.20
2023-08-14T01:06:40.894Z,3.00
2023-08-14T01:09:08.402Z,4.38
2023-08-14T01:12:17.063Z,3.10
2023-08-14T01:14:49.346Z,2.70
2023-08-14T01:17:19.423Z,2.50
2023-08-14T01:19:54.199Z,5.05
2023-08-14T01:22:34.725Z,3.38
2023-08-14T01:25:19.376Z,3.95
2023-08-14T01:27:48.298Z,2.70
2023-08-14T01:30:16.002Z,3.05
2023-08-14T01:32:46.629Z,3.80
2023-08-14T01:35:14.927Z,3.25
2023-08-14T01:37:50.087Z,3.30
2023-08-14T01:40:37.872Z,3.38
2023-08-14T01:43:10.303Z,4.28
2023-08-14T01:45:42.832Z,7.78
2023-08-14T01:48:12.799Z,3.40
2023-08-14T01:50:41.500Z,5.95
2023-08-14T01:53:12.313Z,3.42
2023-08-14T01:55:41.126Z,2.90
2023-08-14T01:58:08.530Z,3.50
2023-08-14T02:00:37.725Z,4.15
2023-08-14T02:03:05.706Z,3.65
2023-08-14T02:05:33.244Z,3.35
2023-08-14T02:08:04.270Z,3.75
2023-08-14T02:10:31.781Z,3.72
2023-08-14T02:12:59.488Z,4.43
2023-08-14T02:15:26.994Z,4.90
2023-08-14T02:17:54.787Z,4.07
2023-08-14T02:20:22.307Z,5.10
2023-08-14T02:22:49.645Z,3.53
2023-08-14T02:25:17.236Z,4.50
2023-08-14T02:27:44.585Z,3.92
2023-08-14T02:30:12.344Z,4.57
2023-08-14T02:32:39.965Z,4.20
2023-08-14T02:35:07.744Z,5.10
2023-08-14T02:37:35.305Z,4.90
2023-08-14T02:40:03.077Z,3.83
2023-08-14T02:42:30.623Z,3.35
2023-08-14T02:44:58.184Z,5.22
2023-08-14T02:47:25.765Z,4.97
2023-08-14T02:49:54.419Z,5.93
2023-08-14T02:52:21.768Z,4.05
2023-08-14T02:54:49.498Z,5.15
2023-08-14T02:57:17.000Z,5.25
2023-08-14T02:59:44.428Z,6.10
2023-08-14T03:02:12.130Z,3.65
2023-08-14T03:04:39.501Z,3.92
2023-08-14T03:07:07.045Z,4.13
2023-08-14T03:09:34.854Z,5.35
2023-08-14T03:12:02.249Z,3.53
2023-08-14T03:14:29.694Z,5.38
2023-08-14T03:16:57.298Z,3.83
2023-08-14T03:19:24.818Z,3.75
2023-08-14T03:21:53.367Z,3.63
2023-08-14T03:24:20.906Z,3.70
2023-08-14T03:26:48.402Z,3.67
2023-08-14T03:29:17.138Z,3.50
2023-08-14T03:31:44.868Z,3.10
2023-08-14T03:34:12.431Z,5.60
2023-08-14T03:36:39.820Z,3.88
2023-08-14T03:39:07.749Z,4.57
2023-08-14T03:41:35.256Z,3.50
2023-08-14T03:44:03.959Z,2.83
2023-08-14T03:46:32.642Z,2.63
2023-08-14T03:49:00.077Z,2.58
2023-08-14T03:51:27.587Z,2.75
2023-08-14T03:54:02.138Z,8.80
2023-08-14T03:56:29.526Z,3.05
2023-08-14T03:59:00.644Z,3.10
2023-08-14T04:01:28.221Z,3.63
2023-08-14T04:03:55.871Z,3.22
2023-08-14T04:06:23.378Z,3.05
2023-08-14T04:08:51.120Z,3.17
2023-08-14T04:11:18.672Z,3.60
2023-08-14T04:13:46.153Z,3.97
2023-08-14T04:16:14.054Z,3.58
2023-08-14T04:18:43.801Z,2.10
2023-08-14T04:21:11.255Z,3.67
2023-08-14T04:23:38.869Z,5.07
2023-08-14T04:26:06.250Z,3.05
2023-08-14T04:28:33.838Z,2.97
2023-08-14T04:31:03.676Z,3.97
2023-08-14T04:33:32.025Z,2.20
2023-08-14T04:35:59.831Z,3.63
2023-08-14T04:38:27.401Z,3.47
2023-08-14T04:40:56.053Z,2.58
2023-08-14T04:43:26.206Z,2.65
2023-08-14T04:45:53.845Z,2.72
2023-08-14T04:48:23.718Z,4.05
2023-08-14T04:50:56.323Z,2.90
2023-08-14T04:53:26.419Z,4.90
2023-08-14T04:55:54.401Z,2.33
2023-08-14T04:58:22.344Z,2.33
2023-08-14T05:00:52.187Z,3.15
2023-08-14T05:03:21.434Z,2.50
2023-08-14T05:05:52.927Z,4.70
2023-08-14T05:08:20.918Z,5.05
2023-08-14T05:10:58.084Z,2.72
2023-08-14T05:13:28.134Z,4.30
2023-08-14T05:16:07.935Z,3.75
2023-08-14T05:18:36.130Z,3.40
2023-08-14T05:21:03.699Z,2.35
2023-08-14T05:23:31.236Z,2.20
2023-08-14T05:26:01.013Z,6.47
2023-08-14T05:28:28.461Z,2.60
2023-08-14T05:30:56.119Z,2.10
2023-08-14T05:33:23.651Z,2.90
2023-08-14T05:35:59.298Z,3.15
2023-08-14T05:38:26.816Z,4.78
2023-08-14T05:40:54.351Z,3.83
2023-08-14T05:43:22.054Z,3.20
2023-08-14T05:45:50.133Z,4.18
2023-08-14T05:48:22.537Z,4.85
2023-08-14T05:50:53.520Z,4.28
2023-08-14T05:53:21.212Z,3.65
2023-08-14T05:55:50.817Z,4.18
2023-08-14T05:58:18.340Z,5.28
2023-08-14T06:00:45.889Z,5.88
2023-08-14T06:03:15.215Z,4.10
2023-08-14T06:05:45.583Z,3.40
2023-08-14T06:08:13.181Z,3.75
2023-08-14T06:10:40.742Z,4.22
2023-08-14T06:13:11.320Z,4.82
2023-08-14T06:15:43.882Z,4.70
2023-08-14T06:18:11.502Z,3.92
2023-08-14T06:20:39.038Z,5.38
2023-08-14T06:23:06.720Z,4.82
2023-08-14T06:25:36.816Z,4.38
2023-08-14T06:28:04.789Z,4.85
2023-08-14T06:30:32.750Z,5.50
2023-08-14T06:33:02.740Z,5.18
2023-08-14T06:35:30.287Z,3.22
2023-08-14T06:37:58.097Z,7.97
2023-08-14T06:40:25.676Z,4.32
2023-08-14T06:42:53.451Z,3.90
2023-08-14T06:45:23.254Z,3.35
2023-08-14T06:47:50.868Z,4.05
2023-08-14T06:50:18.340Z,3.65
2023-08-14T06:52:48.106Z,4.05
2023-08-14T06:55:15.753Z,3.20
2023-08-14T06:57:43.095Z,3.38
2023-08-14T07:00:13.718Z,3.17
2023-08-14T07:02:42.141Z,4.07
2023-08-14T07:05:11.897Z,4.55
2023-08-14T07:07:51.860Z,4.68
2023-08-14T07:10:20.304Z,3.58
2023-08-14T07:12:47.993Z,3.47
2023-08-14T07:15:15.625Z,3.20
2023-08-14T07:17:45.077Z,2.83
2023-08-14T07:20:13.479Z,2.78
2023-08-14T07:22:41.022Z,2.92
2023-08-14T07:25:10.868Z,2.65
2023-08-14T07:27:41.639Z,5.13
2023-08-14T07:30:09.520Z,3.20
2023-08-14T07:32:39.604Z,2.83
2023-08-14T07:35:08.931Z,2.58
2023-08-14T07:37:36.861Z,2.95
2023-08-14T07:40:10.379Z,2.95
2023-08-14T07:42:37.812Z,2.43
2023-08-14T07:45:06.110Z,3.22
2023-08-14T07:47:33.861Z,3.97
2023-08-14T07:50:06.689Z,3.67
2023-08-14T07:52:36.570Z,5.60
2023-08-14T07:55:04.729Z,3.22
2023-08-14T07:57:32.474Z,2.78
2023-08-14T07:59:59.970Z,7.10
2023-08-14T08:02:28.782Z,14.38
2023-08-14T08:04:57.174Z,16.10
2023-08-14T08:07:28.125Z,14.70
2023-08-14T08:09:55.893Z,18.60
2023-08-14T08:12:23.182Z,16.35
2023-08-14T08:14:53.817Z,14.60
2023-08-14T08:17:23.416Z,19.10
2023-08-14T08:19:51.711Z,17.17
2023-08-14T08:22:21.862Z,16.50
2023-08-14T08:24:52.095Z,16.25
2023-08-14T08:27:21.995Z,13.50
2023-08-14T08:29:51.858Z,13.00
2023-08-14T08:32:19.603Z,11.68
2023-08-14T08:34:47.119Z,13.10
2023-08-14T08:37:20.476Z,11.43
2023-08-14T08:39:50.157Z,8.52
2023-08-14T08:42:20.382Z,10.30
2023-08-14T08:44:54.954Z,8.75
2023-08-14T08:47:29.434Z,8.48
2023-08-14T08:49:58.305Z,8.13
2023-08-14T08:52:26.324Z,7.03
2023-08-14T08:54:55.551Z,5.40
2023-08-14T08:57:23.651Z,6.18
2023-08-14T08:59:52.944Z,4.93
2023-08-14T09:02:23.301Z,6.03
2023-08-14T09:04:51.680Z,5.53
2023-08-14T09:07:19.888Z,5.25
2023-08-14T09:09:48.095Z,4.35
2023-08-14T09:12:15.789Z,5.82
2023-08-14T09:15:09.402Z,4.07
2023-08-14T09:17:39.395Z,4.47
2023-08-14T09:22:47.868Z,5.03
2023-08-14T09:25:16.641Z,4.22
2023-08-14T09:27:45.340Z,3.55
2023-08-14T09:30:14.536Z,3.47
2023-08-14T09:32:42.222Z,3.75
2023-08-14T09:35:10.018Z,3.28
2023-08-14T09:37:42.179Z,4.45
2023-08-14T09:40:16.116Z,6.30
2023-08-14T09:42:50.512Z,6.15
2023-08-14T09:45:19.808Z,5.40
2023-08-14T09:47:51.681Z,6.55
2023-08-14T09:50:22.009Z,3.20
2023-08-14T09:52:52.611Z,4.25
2023-08-14T09:55:23.722Z,4.65
2023-08-14T09:57:54.427Z,3.92
2023-08-14T10:00:22.196Z,3.13
2023-08-14T10:02:52.590Z,2.97
2023-08-14T10:05:20.895Z,8.17
2023-08-14T10:07:52.715Z,2.50
2023-08-14T10:10:21.936Z,2.47
2023-08-14T10:12:57.906Z,3.05
2023-08-14T10:15:56.699Z,3.55
2023-08-14T10:18:25.014Z,2.08
2023-08-14T10:20:57.625Z,4.57
2023-08-14T10:23:28.771Z,1.90
2023-08-14T10:25:57.684Z,2.35
2023-08-14T10:28:25.984Z,2.13
2023-08-14T10:30:54.004Z,2.15
2023-08-14T10:33:22.132Z,2.92
2023-08-14T10:35:58.506Z,2.28
2023-08-14T10:38:43.568Z,2.35
2023-08-14T10:41:11.275Z,2.75
2023-08-14T10:43:39.000Z,2.13
2023-08-14T10:46:16.076Z,2.85
2023-08-14T10:48:45.866Z,2.05
2023-08-14T10:51:21.772Z,2.72
2023-08-14T10:53:51.839Z,2.40
2023-08-14T10:56:21.697Z,2.22
2023-08-14T10:58:52.012Z,3.40
2023-08-14T11:01:19.816Z,3.30
2023-08-14T11:04:06.776Z,2.38
2023-08-14T11:07:10.530Z,1.80
2023-08-14T11:09:39.640Z,5.40
2023-08-14T11:12:09.545Z,2.33
2023-08-14T11:14:39.830Z,2.00
2023-08-14T11:17:09.189Z,2.40
2023-08-14T11:19:39.912Z,2.53
2023-08-14T11:22:10.477Z,2.72
2023-08-14T11:24:38.778Z,2.38
2023-08-14T11:27:06.736Z,4.35
2023-08-14T11:29:36.095Z,2.47
2023-08-14T11:32:03.724Z,3.53
2023-08-14T11:34:38.271Z,3.13
2023-08-14T11:37:07.934Z,3.47
2023-08-14T11:39:37.359Z,3.63
2023-08-14T11:42:05.745Z,3.08
2023-08-14T11:44:36.595Z,4.40
2023-08-14T11:47:05.316Z,4.80
2023-08-14T11:49:37.226Z,5.45
2023-08-14T11:52:05.219Z,4.47
2023-08-14T11:54:36.568Z,5.32
2023-08-14T11:57:08.795Z,3.63
2023-08-14T11:59:37.073Z,4.43
2023-08-14T12:02:04.804Z,5.05
2023-08-14T12:04:33.241Z,3.20
2023-08-14T12:07:00.765Z,6.35
2023-08-14T12:09:31.744Z,6.78
2023-08-14T12:12:01.658Z,4.82
2023-08-14T12:14:39.652Z,5.13
2023-08-14T12:17:17.184Z,4.07
2023-08-14T12:19:54.043Z,4.25
2023-08-14T12:22:27.033Z,4.50
2023-08-14T12:24:56.562Z,6.53
2023-08-14T12:27:33.142Z,15.68
2023-08-14T12:30:01.043Z,20.52
2023-08-14T12:32:28.797Z,23.85
2023-08-14T12:34:58.683Z,23.50
2023-08-14T12:37:28.832Z,22.55
2023-08-14T12:39:57.058Z,21.45
2023-08-14T12:42:24.691Z,17.48
2023-08-14T12:44:54.129Z,15.63
2023-08-14T12:47:22.149Z,14.15
2023-08-14T12:49:49.778Z,12.73
2023-08-14T12:52:19.471Z,13.20
2023-08-14T12:54:56.376Z,11.20
2023-08-14T12:57:26.313Z,12.20
2023-08-14T13:04:54.810Z,10.30
2023-08-14T13:07:24.484Z,9.68
2023-08-14T13:09:54.290Z,10.23
2023-08-14T13:12:21.829Z,9.25
2023-08-14T13:14:49.134Z,9.13
2023-08-14T13:17:17.280Z,9.02
2023-08-14T13:19:45.268Z,9.88
2023-08-14T13:22:17.211Z,9.52
2023-08-14T13:24:46.059Z,9.38
2023-08-14T13:27:15.914Z,10.45
2023-08-14T13:29:45.767Z,9.80
2023-08-14T13:32:15.852Z,9.35
2023-08-14T13:34:43.242Z,9.32
2023-08-14T13:37:10.703Z,9.55
2023-08-14T13:39:38.170Z,10.65
2023-08-14T13:42:05.689Z,10.57
2023-08-14T13:44:33.095Z,8.80
2023-08-14T13:47:02.506Z,9.30
2023-08-14T13:49:31.943Z,9.93
2023-08-14T13:51:59.266Z,9.55
2023-08-14T13:54:26.872Z,9.13
2023-08-14T13:56:55.158Z,9.13
2023-08-14T13:59:22.816Z,9.40
2023-08-14T14:01:50.454Z,9.00
2023-08-14T14:04:17.758Z,8.82
2023-08-14T14:06:45.221Z,8.23
2023-08-14T14:09:12.740Z,7.60
2023-08-14T14:11:40.114Z,8.68
2023-08-14T14:14:07.550Z,8.38
2023-08-14T14:16:58.859Z,8.18
2023-08-14T14:19:27.830Z,7.45
2023-08-14T14:21:59.587Z,7.80
2023-08-14T14:24:27.631Z,8.25
2023-08-14T14:26:55.061Z,7.80
2023-08-14T14:29:22.413Z,7.30
2023-08-14T14:31:49.928Z,9.77
2023-08-14T14:34:17.461Z,7.55
2023-08-14T14:36:45.087Z,7.55
2023-08-14T14:39:19.157Z,8.52
2023-08-14T14:41:48.760Z,6.68
2023-08-14T14:44:16.324Z,7.50
2023-08-14T14:46:43.974Z,7.70
2023-08-14T14:49:11.482Z,7.47
2023-08-14T14:51:39.014Z,6.80
2023-08-14T14:54:09.127Z,6.53
2023-08-14T14:56:36.641Z,6.47
2023-08-14T14:59:04.361Z,6.85
2023-08-14T15:01:31.771Z,7.20
2023-08-14T15:03:59.474Z,7.85
2023-08-14T15:06:27.146Z,6.47
2023-08-14T15:08:54.703Z,9.98
2023-08-14T15:11:24.895Z,6.13
2023-08-14T15:13:52.391Z,9.80
2023-08-14T15:16:19.936Z,7.13
2023-08-14T15:18:47.374Z,6.35
2023-08-14T15:21:16.074Z,7.57
2023-08-14T15:23:45.664Z,9.30
2023-08-14T15:26:13.114Z,8.43
2023-08-14T15:28:40.755Z,9.45
2023-08-14T15:31:08.624Z,8.05
2023-08-14T15:33:38.319Z,10.35
2023-08-14T15:36:07.211Z,6.35
2023-08-14T15:38:34.621Z,10.05
2023-08-14T15:41:07.797Z,11.10
2023-08-14T15:43:38.015Z,18.52
2023-08-14T15:46:05.515Z,10.23
2023-08-14T15:48:33.115Z,10.40
2023-08-14T15:51:02.757Z,11.95
2023-08-14T15:53:30.286Z,10.88
2023-08-14T15:56:05.158Z,12.05
2023-08-14T15:58:34.847Z,10.23
2023-08-14T16:01:02.378Z,7.63
2023-08-14T16:03:29.966Z,8.27
2023-08-14T16:06:02.176Z,7.72
2023-08-14T16:08:29.817Z,12.50
2023-08-14T16:11:00.499Z,13.52
2023-08-14T16:13:28.241Z,17.00
2023-08-14T16:15:58.730Z,16.33
2023-08-14T16:18:28.908Z,17.38
2023-08-14T16:21:00.995Z,16.45
2023-08-14T16:23:28.378Z,13.13
2023-08-14T16:25:58.398Z,16.35
2023-08-14T16:28:25.823Z,13.35
2023-08-14T16:30:55.588Z,11.07
2023-08-14T16:33:23.235Z,12.63
2023-08-14T16:35:52.110Z,10.57
2023-08-14T16:38:19.608Z,10.73
2023-08-14T16:40:47.240Z,13.82
2023-08-14T16:43:14.768Z,12.40
2023-08-14T16:45:50.526Z,9.48
2023-08-14T16:48:17.973Z,10.77
2023-08-14T16:50:52.462Z,9.60
2023-08-14T16:53:20.043Z,9.73
2023-08-14T16:55:48.145Z,6.57
2023-08-14T16:58:16.323Z,9.20
2023-08-14T17:00:44.331Z,13.32
2023-08-14T17:03:12.268Z,9.82
2023-08-14T17:05:40.014Z,7.90
2023-08-14T17:08:08.550Z,10.57
2023-08-14T17:10:37.758Z,5.40
2023-08-14T17:13:06.000Z,9.38
2023-08-14T17:15:40.800Z,5.85
2023-08-14T17:18:08.698Z,8.07
2023-08-14T17:20:36.731Z,6.50
2023-08-14T17:23:10.743Z,6.97
2023-08-14T17:25:39.610Z,6.50
2023-08-14T17:28:07.573Z,5.38
2023-08-14T17:30:38.403Z,7.28
2023-08-14T17:33:08.755Z,5.93
2023-08-14T17:35:37.570Z,7.07
2023-08-14T17:38:05.200Z,6.40
2023-08-14T17:40:33.149Z,4.90
2023-08-14T17:43:01.047Z,10.45
2023-08-14T17:45:28.604Z,6.43
2023-08-14T17:47:57.334Z,6.50
2023-08-14T17:50:25.882Z,7.05
2023-08-14T17:52:54.189Z,5.05
2023-08-14T17:55:23.038Z,7.68
2023-08-14T17:57:50.889Z,8.20
2023-08-14T18:00:19.417Z,7.40
2023-08-14T18:02:47.219Z,5.63
2023-08-14T18:05:15.464Z,9.07
2023-08-14T18:07:45.121Z,4.07
2023-08-14T18:10:16.575Z,5.20
2023-08-14T18:12:44.594Z,5.28
2023-08-14T18:15:12.901Z,5.53
2023-08-14T18:17:41.751Z,5.35
2023-08-14T18:20:09.936Z,5.68
2023-08-14T18:22:38.275Z,4.50
2023-08-14T18:25:06.929Z,5.18
2023-08-14T18:27:35.491Z,5.47
2023-08-14T18:30:04.652Z,6.60
2023-08-14T18:32:32.739Z,3.58
2023-08-14T18:35:00.873Z,4.78
2023-08-14T18:37:31.296Z,3.47
2023-08-14T18:39:59.075Z,3.50
2023-08-14T18:42:27.292Z,4.60
2023-08-14T18:44:55.139Z,4.03
2023-08-14T18:47:23.309Z,3.92
2023-08-14T18:49:51.139Z,4.38
2023-08-14T18:52:21.481Z,4.47
2023-08-14T18:54:51.525Z,4.15
2023-08-14T18:57:21.782Z,5.13
2023-08-14T18:59:49.689Z,4.50
2023-08-14T19:02:18.815Z,3.92
2023-08-14T19:04:47.246Z,3.65
2023-08-14T19:07:15.313Z,4.15
2023-08-14T19:09:44.438Z,5.40
2023-08-14T19:12:12.692Z,3.63
2023-08-14T19:14:40.502Z,3.42
2023-08-14T19:17:08.392Z,3.25
2023-08-14T19:19:36.800Z,3.28
2023-08-14T19:22:04.784Z,3.83
2023-08-14T19:24:33.069Z,3.83
2023-08-14T19:27:04.294Z,4.50
2023-08-14T19:29:34.477Z,3.72
2023-08-14T19:32:02.453Z,3.83
2023-08-14T19:34:30.277Z,5.07
2023-08-14T19:36:58.075Z,3.58
2023-08-14T19:39:25.885Z,4.50
2023-08-14T19:41:53.502Z,4.07
2023-08-14T19:44:20.946Z,4.32
2023-08-14T19:46:49.044Z,3.88
2023-08-14T19:49:17.375Z,4.30
2023-08-14T19:51:45.211Z,4.13
2023-08-14T19:54:12.923Z,5.13
2023-08-14T19:56:41.584Z,5.32
2023-08-14T19:59:09.909Z,7.38
2023-08-14T20:01:39.887Z,4.07
2023-08-14T20:04:09.756Z,4.82
2023-08-14T20:06:38.368Z,5.40
2023-08-14T20:09:06.389Z,5.30
2023-08-14T20:11:36.252Z,4.30
2023-08-14T20:14:04.510Z,4.93
2023-08-14T20:16:32.589Z,4.53
2023-08-14T20:19:03.003Z,4.43
2023-08-14T20:21:32.862Z,5.97
2023-08-14T20:24:02.898Z,5.13
2023-08-14T20:26:30.362Z,6.95
2023-08-14T20:28:57.879Z,5.55
2023-08-14T20:31:25.463Z,4.93
2023-08-14T20:33:57.396Z,5.50
2023-08-14T20:36:29.044Z,5.45
2023-08-14T20:38:56.721Z,6.82
2023-08-14T20:41:25.526Z,5.45
2023-08-14T20:43:53.062Z,5.10
2023-08-14T20:46:20.539Z,6.03
2023-08-14T20:48:48.574Z,4.47
2023-08-14T20:51:17.627Z,5.78
2023-08-14T20:53:45.205Z,5.28
2023-08-14T20:56:12.796Z,4.80
2023-08-14T20:58:40.175Z,11.18
2023-08-14T21:01:07.797Z,5.30
2023-08-14T21:03:37.523Z,7.53
2023-08-14T21:06:05.238Z,6.57
2023-08-14T21:08:32.706Z,7.38
2023-08-14T21:11:00.834Z,7.50
2023-08-14T21:13:30.399Z,6.72
2023-08-14T21:15:59.246Z,7.82
2023-08-14T21:18:26.998Z,6.38
2023-08-14T21:20:54.485Z,6.03
2023-08-14T21:23:23.215Z,6.72
2023-08-14T21:25:50.727Z,5.15
2023-08-14T21:28:18.171Z,6.63
2023-08-14T21:30:45.909Z,5.55
2023-08-14T21:33:13.939Z,5.28
2023-08-14T21:35:41.596Z,6.15
2023-08-14T21:38:08.997Z,6.13
2023-08-14T21:40:40.275Z,5.32
2023-08-14T21:43:07.948Z,6.18
2023-08-14T21:45:35.466Z,6.90
2023-08-14T21:48:03.342Z,5.35
2023-08-14T21:50:30.930Z,7.43
2023-08-14T21:52:58.258Z,6.18
2023-08-14T21:55:25.922Z,5.30
2023-08-14T21:57:53.471Z,4.75
2023-08-14T22:00:21.029Z,5.00
2023-08-14T22:02:52.376Z,6.95
2023-08-14T22:05:19.831Z,8.13
2023-08-14T22:07:47.307Z,6.85
2023-08-14T22:10:14.837Z,5.63
2023-08-14T22:12:45.607Z,6.00
2023-08-14T22:17:41.119Z,6.15
2023-08-14T22:20:11.188Z,4.88
2023-08-14T22:22:39.256Z,4.88
2023-08-14T22:25:10.329Z,6.63
2023-08-14T22:27:38.727Z,5.35
2023-08-14T22:30:06.692Z,6.85
2023-08-14T22:32:34.237Z,5.65
2023-08-14T22:35:01.759Z,7.60
2023-08-14T22:37:29.178Z,6.57
2023-08-14T22:39:57.890Z,6.60
2023-08-14T22:42:26.118Z,6.15
2023-08-14T22:44:53.691Z,5.50
2023-08-14T22:47:21.562Z,5.28
2023-08-14T22:49:49.321Z,4.85
2023-08-14T22:52:16.914Z,5.68
2023-08-14T22:54:46.708Z,6.20
2023-08-14T22:57:15.451Z,6.05
2023-08-14T22:59:42.839Z,6.25
2023-08-14T23:02:10.545Z,6.28
2023-08-14T23:04:38.091Z,5.25
2023-08-14T23:07:05.823Z,5.70
2023-08-14T23:09:33.515Z,6.15
2023-08-14T23:12:01.993Z,5.55
2023-08-14T23:14:29.397Z,6.30
2023-08-14T23:16:56.926Z,5.43
2023-08-14T23:19:24.485Z,7.60
2023-08-14T23:21:52.545Z,5.57
2023-08-14T23:24:21.191Z,6.53
2023-08-14T23:26:48.620Z,5.68
2023-08-14T23:29:16.059Z,5.25
2023-08-14T23:31:43.624Z,6.28
2023-08-14T23:34:11.149Z,5.47
2023-08-14T23:36:38.883Z,5.45
2023-08-14T23:39:06.723Z,6.32
2023-08-14T23:41:34.334Z,5.85
2023-08-14T23:44:02.276Z,8.35
2023-08-14T23:46:30.021Z,9.23
2023-08-14T23:49:00.528Z,8.43
2023-08-14T23:51:28.098Z,7.60
2023-08-14T23:53:58.459Z,6.73
2023-08-14T23:56:26.104Z,6.47
2023-08-14T23:58:54.909Z,5.63
